createdAt,value
2018-05-14T00:01:51.224Z,101334.31
2018-05-14T00:04:54.524Z,101340.78
2018-05-14T00:07:57.865Z,101329.45
2018-05-14T00:11:01.176Z,101335.05
2018-05-14T00:14:04.557Z,101337.66
2018-05-14T00:17:07.944Z,101336.76
2018-05-14T00:20:11.297Z,101337.12
2018-05-14T00:23:14.630Z,101337.96
2018-05-14T00:26:17.976Z,101337.92
2018-05-14T00:29:22.057Z,101347.42
2018-05-14T00:32:25.398Z,101342.56
2018-05-14T00:35:29.478Z,101344.74
2018-05-14T00:38:32.829Z,101341.66
2018-05-14T00:41:36.153Z,101340.28
2018-05-14T00:44:39.513Z,101343.28
2018-05-14T00:47:42.840Z,101338.89
2018-05-14T00:50:46.249Z,101338.42
2018-05-14T00:53:49.644Z,101341.06
2018-05-14T00:56:53.054Z,101340.64
2018-05-14T00:59:56.450Z,101348.00
2018-05-14T01:02:59.798Z,101349.73
2018-05-14T01:06:03.137Z,101347.08
2018-05-14T01:09:06.541Z,101347.44
2018-05-14T01:12:09.913Z,101336.60
2018-05-14T01:15:13.245Z,101340.91
2018-05-14T01:18:17.341Z,101344.31
2018-05-14T01:21:20.733Z,101344.31
2018-05-14T01:24:24.136Z,101341.70
2018-05-14T01:27:27.539Z,101346.06
2018-05-14T01:30:30.921Z,101349.02
2018-05-14T01:33:34.332Z,101354.98
2018-05-14T01:36:37.640Z,101351.90
2018-05-14T01:39:41.010Z,101350.48
2018-05-14T01:42:44.331Z,101354.30
2018-05-14T01:45:47.704Z,101354.30
2018-05-14T01:48:51.026Z,101349.42
2018-05-14T01:51:55.137Z,101352.43
2018-05-14T01:54:58.448Z,101346.73
2018-05-14T01:58:02.564Z,101354.12
2018-05-14T02:01:06.648Z,101356.25
2018-05-14T02:04:10.042Z,101357.09
2018-05-14T02:07:13.436Z,101356.60
2018-05-14T02:10:16.838Z,101353.56
2018-05-14T02:13:20.145Z,101354.38
2018-05-14T02:16:23.546Z,101360.47
2018-05-14T02:19:26.866Z,101357.42
2018-05-14T02:22:31.039Z,101357.38
2018-05-14T02:25:35.149Z,101360.86
2018-05-14T02:28:38.483Z,101362.17
2018-05-14T02:31:42.576Z,101360.08
2018-05-14T02:34:45.963Z,101365.73
2018-05-14T02:37:49.268Z,101363.03
2018-05-14T02:40:52.659Z,101363.08
2018-05-14T02:43:56.054Z,101361.73
2018-05-14T02:46:59.430Z,101358.25
2018-05-14T02:50:02.912Z,101358.25
2018-05-14T02:53:06.244Z,101362.21
2018-05-14T02:56:09.647Z,101360.38
2018-05-14T02:59:13.005Z,101359.12
2018-05-14T03:02:16.334Z,101355.64
2018-05-14T03:05:19.673Z,101361.20
2018-05-14T03:08:23.847Z,101367.23
2018-05-14T03:11:27.254Z,101369.80
2018-05-14T03:14:30.564Z,101365.02
2018-05-14T03:17:33.920Z,101369.80
2018-05-14T03:20:37.234Z,101371.55
2018-05-14T03:23:40.584Z,101374.24
2018-05-14T03:26:43.900Z,101374.23
2018-05-14T03:29:47.258Z,101378.16
2018-05-14T03:32:51.349Z,101381.25
2018-05-14T03:35:54.749Z,101383.03
2018-05-14T03:38:58.826Z,101387.72
2018-05-14T03:42:02.255Z,101393.37
2018-05-14T03:45:05.645Z,101401.62
2018-05-14T03:48:09.015Z,101399.94
2018-05-14T03:51:12.339Z,101403.86
2018-05-14T03:54:15.732Z,101404.72
2018-05-14T03:57:19.136Z,101405.20
2018-05-14T04:00:40.346Z,101410.52
2018-05-14T04:04:01.393Z,101405.34
2018-05-14T04:07:05.501Z,101410.56
2018-05-14T04:10:08.866Z,101416.27
2018-05-14T04:13:12.276Z,101416.41
2018-05-14T04:16:17.301Z,101414.32
2018-05-14T04:19:20.644Z,101419.16
2018-05-14T04:22:24.818Z,101420.53
2018-05-14T04:25:28.157Z,101415.41
2018-05-14T04:28:32.329Z,101422.46
2018-05-14T04:31:35.730Z,101421.19
2018-05-14T04:34:39.046Z,101422.23
2018-05-14T04:37:42.401Z,101425.38
2018-05-14T04:40:45.734Z,101425.85
2018-05-14T04:43:49.068Z,101431.16
2018-05-14T04:46:52.384Z,101431.72
2018-05-14T04:49:55.716Z,101430.97
2018-05-14T04:52:59.037Z,101434.61
2018-05-14T04:56:03.172Z,101436.47
2018-05-14T04:59:06.571Z,101443.16
2018-05-14T05:02:10.096Z,101443.34
2018-05-14T05:05:13.413Z,101441.20
2018-05-14T05:08:16.810Z,101449.63
2018-05-14T05:11:20.223Z,101450.23
2018-05-14T05:14:23.560Z,101449.53
2018-05-14T05:17:26.896Z,101442.63
2018-05-14T05:20:30.224Z,101445.70
2018-05-14T05:23:33.548Z,101440.58
2018-05-14T05:26:36.999Z,101443.25
2018-05-14T05:29:40.397Z,101440.66
2018-05-14T05:32:43.754Z,101445.89
2018-05-14T05:35:47.081Z,101440.29
2018-05-14T05:38:50.418Z,101443.05
2018-05-14T05:41:54.552Z,101449.68
2018-05-14T05:44:57.972Z,101448.02
2018-05-14T05:48:01.390Z,101452.44
2018-05-14T05:51:04.725Z,101456.83
2018-05-14T05:54:08.804Z,101455.59
2018-05-14T05:57:12.206Z,101453.44
2018-05-14T06:00:15.618Z,101458.75
2018-05-14T06:03:18.991Z,101461.50
2018-05-14T06:06:22.413Z,101461.61
2018-05-14T06:09:25.916Z,101463.06
2018-05-14T06:12:29.917Z,101467.97
2018-05-14T06:15:33.316Z,101466.30
2018-05-14T06:18:36.613Z,101472.51
2018-05-14T06:21:39.955Z,101464.27
2018-05-14T06:24:43.273Z,101472.66
2018-05-14T06:27:46.632Z,101472.24
2018-05-14T06:30:49.993Z,101473.59
2018-05-14T06:33:53.409Z,101481.07
2018-05-14T06:36:56.749Z,101476.73
2018-05-14T06:40:00.101Z,101477.20
2018-05-14T06:43:03.493Z,101479.89
2018-05-14T06:46:06.906Z,101478.17
2018-05-14T06:49:11.040Z,101481.27
2018-05-14T06:52:15.223Z,101483.92
2018-05-14T06:55:18.540Z,101481.77
2018-05-14T06:58:21.914Z,101483.12
2018-05-14T07:01:25.234Z,101486.64
2018-05-14T07:04:30.152Z,101490.16
2018-05-14T07:07:33.470Z,101487.09
2018-05-14T07:10:37.578Z,101499.36
2018-05-14T07:13:40.887Z,101498.92
2018-05-14T07:16:44.993Z,101505.08
2018-05-14T07:19:49.193Z,101501.16
2018-05-14T07:22:52.544Z,101518.24
2018-05-14T07:25:55.854Z,101508.16
2018-05-14T07:28:59.293Z,101507.73
2018-05-14T07:32:02.676Z,101509.08
2018-05-14T07:35:06.013Z,101516.98
2018-05-14T07:38:10.138Z,101509.07
2018-05-14T07:41:13.445Z,101511.70
2018-05-14T07:44:16.762Z,101513.88
2018-05-14T07:47:20.175Z,101521.33
2018-05-14T07:50:23.626Z,101518.66
2018-05-14T07:53:27.798Z,101519.05
2018-05-14T07:56:32.793Z,101520.34
2018-05-14T07:59:36.237Z,101521.23
2018-05-14T08:02:39.582Z,101518.14
2018-05-14T08:05:43.104Z,101518.50
2018-05-14T08:08:46.426Z,101510.98
2018-05-14T08:11:50.557Z,101514.38
2018-05-14T08:14:54.658Z,101520.11
2018-05-14T08:17:58.066Z,101522.69
2018-05-14T08:21:01.378Z,101514.69
2018-05-14T08:24:04.733Z,101512.84
2018-05-14T08:27:08.041Z,101508.41
2018-05-14T08:30:11.514Z,101512.30
2018-05-14T08:33:14.849Z,101516.55
2018-05-14T08:36:18.246Z,101518.64
2018-05-14T08:39:21.710Z,101524.22
2018-05-14T08:42:25.181Z,101513.01
2018-05-14T08:45:28.528Z,101511.09
2018-05-14T08:48:31.943Z,101517.53
2018-05-14T08:51:35.265Z,101513.05
2018-05-14T08:54:39.436Z,101501.01
2018-05-14T08:57:42.825Z,101501.30
2018-05-14T09:00:46.178Z,101512.11
2018-05-14T09:03:49.451Z,101515.94
2018-05-14T09:06:52.831Z,101517.73
2018-05-14T09:09:56.150Z,101524.20
2018-05-14T09:12:59.487Z,101526.30
2018-05-14T09:16:02.810Z,101525.72
2018-05-14T09:19:06.226Z,101525.96
2018-05-14T09:22:09.541Z,101524.45
2018-05-14T09:25:12.917Z,101526.55
2018-05-14T09:28:16.308Z,101523.42
2018-05-14T09:31:19.783Z,101522.63
2018-05-14T09:34:23.044Z,101520.09
2018-05-14T09:37:27.223Z,101528.91
2018-05-14T09:40:30.536Z,101531.55
2018-05-14T09:43:33.880Z,101532.02
2018-05-14T09:46:37.203Z,101529.59
2018-05-14T09:49:40.604Z,101522.70
2018-05-14T09:52:44.014Z,101530.62
2018-05-14T09:55:47.397Z,101525.70
2018-05-14T09:58:50.722Z,101521.59
2018-05-14T10:01:54.094Z,101522.05
2018-05-14T10:04:57.436Z,101531.63
2018-05-14T10:08:01.552Z,101533.64
2018-05-14T10:11:05.725Z,101532.72
2018-05-14T10:14:09.079Z,101536.80
2018-05-14T10:17:12.384Z,101529.84
2018-05-14T10:20:15.822Z,101529.23
2018-05-14T10:23:19.153Z,101533.95
2018-05-14T10:26:23.244Z,101531.29
2018-05-14T10:29:26.631Z,101534.30
2018-05-14T10:32:29.979Z,101541.62
2018-05-14T10:35:33.319Z,101543.95
2018-05-14T10:38:36.671Z,101539.10
2018-05-14T10:41:39.990Z,101544.06
2018-05-14T10:44:43.404Z,101537.44
2018-05-14T10:47:46.721Z,101543.52
2018-05-14T10:50:50.102Z,101553.92
2018-05-14T10:53:53.501Z,101553.25
2018-05-14T10:56:56.910Z,101555.70
2018-05-14T11:00:00.400Z,101558.97
2018-05-14T11:03:03.809Z,101558.13
2018-05-14T11:06:07.205Z,101559.73
2018-05-14T11:09:10.545Z,101560.69
2018-05-14T11:12:13.874Z,101567.64
2018-05-14T11:15:17.214Z,101551.72
2018-05-14T11:18:21.293Z,101554.27
2018-05-14T11:21:24.688Z,101553.03
2018-05-14T11:24:28.087Z,101561.73
2018-05-14T11:27:31.594Z,101558.05
2018-05-14T11:30:34.831Z,101558.16
2018-05-14T11:33:38.958Z,101553.64
2018-05-14T11:36:42.272Z,101554.34
2018-05-14T11:39:45.638Z,101557.06
2018-05-14T11:42:49.720Z,101554.03
2018-05-14T11:45:53.924Z,101559.90
2018-05-14T11:48:57.330Z,101556.40
2018-05-14T11:52:00.691Z,101554.62
2018-05-14T11:55:04.029Z,101556.45
2018-05-14T11:58:07.375Z,101571.28
2018-05-14T12:01:10.724Z,101567.28
2018-05-14T12:04:14.066Z,101569.61
2018-05-14T12:07:17.399Z,101566.94
2018-05-14T12:10:20.756Z,101575.47
2018-05-14T12:13:24.073Z,101578.64
2018-05-14T12:16:27.497Z,101580.05
2018-05-14T12:19:30.894Z,101582.06
2018-05-14T12:22:34.307Z,101579.25
2018-05-14T12:25:37.691Z,101574.59
2018-05-14T12:28:41.013Z,101575.64
2018-05-14T12:31:44.334Z,101585.05
2018-05-14T12:34:47.792Z,101581.98
2018-05-14T12:37:51.185Z,101584.48
2018-05-14T12:40:54.537Z,101581.61
2018-05-14T12:43:57.865Z,101583.73
2018-05-14T12:47:01.254Z,101577.09
2018-05-14T12:50:04.582Z,101577.43
2018-05-14T12:53:07.973Z,101583.02
2018-05-14T12:56:11.395Z,101576.81
2018-05-14T12:59:15.584Z,101578.91
2018-05-14T13:02:18.899Z,101568.98
2018-05-14T13:05:22.228Z,101573.27
2018-05-14T13:08:25.547Z,101571.76
2018-05-14T13:11:28.913Z,101573.67
2018-05-14T13:14:32.248Z,101571.84
2018-05-14T13:17:35.609Z,101573.34
2018-05-14T13:20:38.941Z,101568.19
2018-05-14T13:23:42.274Z,101576.03
2018-05-14T13:26:45.617Z,101575.87
2018-05-14T13:29:49.058Z,101579.11
2018-05-14T13:32:52.442Z,101576.80
2018-05-14T13:35:55.801Z,101576.08
2018-05-14T13:38:59.133Z,101573.81
2018-05-14T13:42:02.525Z,101572.13
2018-05-14T13:45:05.854Z,101574.69
2018-05-14T13:48:09.209Z,101570.66
2018-05-14T13:51:12.525Z,101565.92
2018-05-14T13:54:15.883Z,101561.66
2018-05-14T13:57:19.250Z,101568.84
2018-05-14T14:00:23.426Z,101564.44
2018-05-14T14:03:26.801Z,101561.95
2018-05-14T14:06:31.062Z,101565.17
2018-05-14T14:09:34.359Z,101564.02
2018-05-14T14:12:38.557Z,101570.26
2018-05-14T14:19:13.998Z,101571.89
2018-05-14T14:22:17.424Z,101573.83
2018-05-14T14:25:20.769Z,101572.77
2018-05-14T14:28:24.098Z,101572.02
2018-05-14T14:31:28.337Z,101565.55
2018-05-14T14:34:31.725Z,101568.11
2018-05-14T14:37:35.077Z,101573.68
2018-05-14T14:40:38.410Z,101567.25
2018-05-14T14:43:41.760Z,101572.17
2018-05-14T14:46:45.843Z,101572.25
2018-05-14T14:49:49.229Z,101571.66
2018-05-14T14:52:52.546Z,101566.89
2018-05-14T14:55:55.894Z,101568.94
2018-05-14T14:58:59.256Z,101570.80
2018-05-14T15:02:03.360Z,101575.59
2018-05-14T15:05:07.457Z,101570.21
2018-05-14T15:08:10.835Z,101573.34
2018-05-14T15:11:14.246Z,101571.83
2018-05-14T15:14:17.653Z,101573.73
2018-05-14T15:17:21.025Z,101567.93
2018-05-14T15:20:24.447Z,101568.73
2018-05-14T15:23:27.780Z,101568.09
2018-05-14T15:26:31.129Z,101570.08
2018-05-14T15:29:34.551Z,101562.90
2018-05-14T15:32:37.925Z,101559.41
2018-05-14T15:35:41.308Z,101553.34
2018-05-14T15:38:44.794Z,101562.04
2018-05-14T15:41:48.218Z,101556.28
2018-05-14T15:44:51.637Z,101559.30
2018-05-14T15:47:54.953Z,101550.81
2018-05-14T15:50:59.625Z,101544.27
2018-05-14T15:54:02.960Z,101547.36
2018-05-14T15:57:06.292Z,101535.14
2018-05-14T16:00:09.645Z,101538.84
2018-05-14T16:03:13.011Z,101542.45
2018-05-14T16:06:16.437Z,101537.86
2018-05-14T16:09:19.785Z,101543.31
2018-05-14T16:12:23.112Z,101544.92
2018-05-14T16:15:26.514Z,101544.69
2018-05-14T16:18:29.842Z,101546.17
2018-05-14T16:21:33.969Z,101552.17
2018-05-14T16:24:37.272Z,101550.59
2018-05-14T16:27:40.736Z,101544.20
2018-05-14T16:30:44.072Z,101549.68
2018-05-14T16:33:47.407Z,101551.53
2018-05-14T16:36:52.268Z,101547.44
2018-05-14T16:39:56.470Z,101548.30
2018-05-14T16:42:59.854Z,101548.06
2018-05-14T16:46:03.230Z,101545.62
2018-05-14T16:49:06.556Z,101550.87
2018-05-14T16:52:09.887Z,101552.10
2018-05-14T16:55:13.246Z,101545.06
2018-05-14T16:58:16.658Z,101544.59
2018-05-14T17:01:20.067Z,101542.50
2018-05-14T17:04:24.206Z,101541.53
2018-05-14T17:07:27.485Z,101540.05
2018-05-14T17:10:30.855Z,101542.33
2018-05-14T17:13:34.177Z,101544.89
2018-05-14T17:16:37.650Z,101547.55
2018-05-14T17:19:41.759Z,101546.72
2018-05-14T17:22:45.119Z,101552.70
2018-05-14T17:25:48.434Z,101548.91
2018-05-14T17:28:51.840Z,101547.53
2018-05-14T17:31:55.164Z,101542.30
2018-05-14T17:34:59.302Z,101541.37
2018-05-14T17:38:02.624Z,101543.58
2018-05-14T17:41:06.067Z,101543.37
2018-05-14T17:44:09.406Z,101543.64
2018-05-14T17:47:12.789Z,101540.45
2018-05-14T17:50:16.115Z,101541.69
2018-05-14T17:53:19.481Z,101553.69
2018-05-14T17:56:22.805Z,101546.84
2018-05-14T17:59:26.141Z,101546.15
2018-05-14T18:02:30.314Z,101549.39
2018-05-14T18:05:33.657Z,101551.66
2018-05-14T18:08:36.982Z,101548.69
2018-05-14T18:11:40.332Z,101551.11
2018-05-14T18:14:43.652Z,101553.88
2018-05-14T18:17:47.171Z,101558.83
2018-05-14T18:20:51.234Z,101556.79
2018-05-14T18:23:54.590Z,101552.09
2018-05-14T18:26:58.784Z,101551.74
2018-05-14T18:30:08.318Z,101546.15
2018-05-14T18:33:11.668Z,101551.08
2018-05-14T18:36:15.194Z,101556.47
2018-05-14T18:39:18.598Z,101556.11
2018-05-14T18:42:22.291Z,101561.91
2018-05-14T18:45:25.584Z,101567.67
2018-05-14T18:48:29.462Z,101567.31
2018-05-14T18:51:32.788Z,101567.78
2018-05-14T18:54:36.153Z,101574.87
2018-05-14T18:57:39.485Z,101577.55
2018-05-14T19:00:42.845Z,101581.12
2018-05-14T19:03:46.219Z,101588.17
2018-05-14T19:06:50.355Z,101589.56
2018-05-14T19:09:53.699Z,101591.33
2018-05-14T19:12:57.095Z,101593.59
2018-05-14T19:16:06.001Z,101597.14
2018-05-14T19:19:09.423Z,101605.50
2018-05-14T19:22:18.309Z,101609.01
2018-05-14T19:25:21.661Z,101607.70
2018-05-14T19:28:31.246Z,101610.77
2018-05-14T19:31:34.678Z,101607.28
2018-05-14T19:34:43.738Z,101609.03
2018-05-14T19:37:47.873Z,101616.45
2018-05-14T19:40:52.144Z,101619.09
2018-05-14T19:43:55.542Z,101626.98
2018-05-14T19:46:58.867Z,101627.85
2018-05-14T19:50:03.069Z,101632.22
2018-05-14T19:53:06.470Z,101635.70
2018-05-14T19:56:09.881Z,101633.50
2018-05-14T19:59:14.713Z,101637.89
2018-05-14T20:02:19.030Z,101647.93
2018-05-14T20:05:23.372Z,101645.71
2018-05-14T20:08:27.004Z,101650.51
2018-05-14T20:11:30.831Z,101656.16
2018-05-14T20:14:34.424Z,101658.34
2018-05-14T20:17:37.824Z,101659.16
2018-05-14T20:20:41.592Z,101663.52
2018-05-14T20:23:45.117Z,101659.11
2018-05-14T20:26:48.692Z,101656.92
2018-05-14T20:29:52.005Z,101657.86
2018-05-14T20:32:55.400Z,101659.17
2018-05-14T20:35:58.727Z,101653.50
2018-05-14T20:39:02.036Z,101653.91
2018-05-14T20:42:06.159Z,101650.37
2018-05-14T20:45:10.389Z,101652.95
2018-05-14T20:48:14.424Z,101649.00
2018-05-14T20:51:17.875Z,101642.49
2018-05-14T20:54:21.198Z,101650.84
2018-05-14T20:57:25.380Z,101651.70
2018-05-14T21:00:28.737Z,101659.12
2018-05-14T21:03:32.115Z,101662.17
2018-05-14T21:06:35.464Z,101664.82
2018-05-14T21:09:38.865Z,101671.83
2018-05-14T21:12:42.194Z,101669.09
2018-05-14T21:15:46.276Z,101667.25
2018-05-14T21:18:50.418Z,101674.61
2018-05-14T21:21:53.891Z,101675.80
2018-05-14T21:24:57.226Z,101681.84
2018-05-14T21:28:01.509Z,101675.22
2018-05-14T21:31:04.902Z,101676.46
2018-05-14T21:34:08.268Z,101676.41
2018-05-14T21:37:11.697Z,101672.94
2018-05-14T21:40:15.091Z,101676.88
2018-05-14T21:43:18.490Z,101675.91
2018-05-14T21:46:21.910Z,101679.31
2018-05-14T21:49:25.990Z,101680.92
2018-05-14T21:52:29.690Z,101696.19
2018-05-14T21:55:33.302Z,101695.40
2018-05-14T21:58:38.203Z,101699.05
2018-05-14T22:01:41.912Z,101699.21
2018-05-14T22:04:45.575Z,101709.02
2018-05-14T22:07:49.099Z,101709.95
2018-05-14T22:10:52.860Z,101710.50
2018-05-14T22:13:57.076Z,101703.04
2018-05-14T22:17:00.487Z,101704.36
2018-05-14T22:20:03.956Z,101699.97
2018-05-14T22:23:07.320Z,101700.38
2018-05-14T22:26:10.653Z,101702.49
2018-05-14T22:32:24.388Z,101701.97
2018-05-14T22:35:27.827Z,101704.91
2018-05-14T22:38:31.211Z,101707.41
2018-05-14T22:41:34.565Z,101712.00
2018-05-14T22:44:37.888Z,101711.87
2018-05-14T22:47:41.249Z,101708.63
2018-05-14T22:50:44.644Z,101706.27
2018-05-14T22:53:48.737Z,101703.02
2018-05-14T22:56:52.082Z,101704.13
2018-05-14T22:59:55.505Z,101708.78
2018-05-14T23:02:58.908Z,101707.91
2018-05-14T23:06:02.275Z,101697.47
2018-05-14T23:09:05.587Z,101703.28
2018-05-14T23:12:09.028Z,101690.69
2018-05-14T23:15:13.210Z,101692.34
2018-05-14T23:18:16.550Z,101690.92
2018-05-14T23:21:19.924Z,101683.44
2018-05-14T23:24:23.282Z,101690.75
2018-05-14T23:27:26.696Z,101687.95
2018-05-14T23:30:30.061Z,101696.92
2018-05-14T23:33:33.498Z,101694.23
2018-05-14T23:36:36.846Z,101685.86
2018-05-14T23:39:40.178Z,101680.98
2018-05-14T23:42:43.603Z,101678.17
2018-05-14T23:45:47.876Z,101685.41
2018-05-14T23:48:51.199Z,101685.69
2018-05-14T23:51:54.685Z,101672.92
2018-05-14T23:54:58.051Z,101674.53
2018-05-14T23:58:01.369Z,101678.36
